Aeroporto :
LOGIN :

Iscrizione | Disclaimer

   EN    FR    IT 

 










Sommario :    VFR   VFR Marginale   IFR   IFR Intensivo   IFR Molto Intensivo
Visibilità : 
Base nubi : 
>= 8 km
>= 3000ft
5 / 8 km
1000 / 3000 ft
1500m / 5 km
500 / 1000 ft
800 / 1500m
200 / 500 ft
< 800m
< 200 ft
Simboli :   Temporali  Nebbia  Neve Forte  Precipitazioni Forti  Vento > 20 kt
SIGMETs :   Varie  Temporali  Ghiacco  Turbolenza  Onda orograficha  Ceneri Vulcaniche






- Altitudine del aeroporto : 648 ft
- Codice IATA : INI


LYNI - Nis Constantine

ULTIMO METAR :
  • 011130Z 21004KT 150V270 CAVOK 03/M03 Q1021 NOSIG

METARs OBSOLETI :
  • 011100Z VRB04KT CAVOK 03/M04 Q1021 NOSIG
  • 011030Z 17005KT 130V210 CAVOK 02/M04 Q1022 NOSIG
  • 011000Z 12005KT 080V170 CAVOK 02/M05 Q1022 NOSIG
  • 010930Z 11006KT 070V140 CAVOK 00/M05 Q1023 NOSIG
  • 010900Z 09009KT CAVOK M01/M05 Q1024 NOSIG

TAF TAF LYNI
Valido dal 01 a 12 ore il 02 a 12 ore UTC


011100Z 0112/0212 13007KT CAVOK TX06/0113Z TNM02/0205Z
BECMG 0114/0116 07012KT



MetMap, La meteo Aeronautica in un colpo d'occhio ! - Copyright ORBIFLY Dicembre 2007 - Disclaimer

ORBIFLY MET'MAP TEAM :

Programmazione e sviluppo : Alexandra Zaïnal
Concezione : Baudouin d'Aumeries
Aiuto per la programmazione : Marc-Olivier Méhu
Supporto tecnico e logistico : Manuel Goepfert
Aiuto per la traduzione : Arnaldo La Scala

Contatto : metmap@orbifly.com




FONTI E CREDITI :

   NOAA